Time;durP1;ratioP1;P1;durP2;ratioP2;P2;SDS_P1;SDS_P2;PMS_P1;PMS_P2;Temp;Humidity;BMP_temperature;BMP_pressure;BME280_temperature;BME280_humidity;BME280_pressure;Samples;Min_cycle;Max_cycle;Signal;HPM_P1;HPM_P2
2021/08/05 00:01:52;;;;;;;2.70;2.35;;;;;;;;;;4915331;29;20512;-70
2021/08/05 00:04:19;;;;;;;2.83;2.35;;;;;;;;;;4915215;29;20052;-70
2021/08/05 00:06:46;;;;;;;3.63;2.15;;;;;;;;;;4915265;29;20123;-70
2021/08/05 00:09:12;;;;;;;3.78;2.15;;;;;;;;;;4928789;29;20494;-71
2021/08/05 00:11:39;;;;;;;3.28;2.53;;;;;;;;;;4934206;29;20511;-71
2021/08/05 00:14:05;;;;;;;2.40;2.20;;;;;;;;;;4934094;29;20098;-70
2021/08/05 00:16:32;;;;;;;3.40;2.40;;;;;;;;;;4934214;29;20056;-70
2021/08/05 00:18:59;;;;;;;2.95;2.33;;;;;;;;;;4933974;29;20071;-70
2021/08/05 00:21:25;;;;;;;4.15;2.40;;;;;;;;;;4934105;29;20098;-71
2021/08/05 00:23:52;;;;;;;3.17;2.15;;;;;;;;;;4934383;29;20091;-71
2021/08/05 00:26:18;;;;;;;2.97;2.63;;;;;;;;;;4934097;29;20079;-69
2021/08/05 00:28:45;;;;;;;4.05;2.30;;;;;;;;;;4923904;29;20472;-70
2021/08/05 00:31:11;;;;;;;2.40;2.20;;;;;;;;;;4915022;29;20134;-70
2021/08/05 00:33:38;;;;;;;2.67;2.17;;;;;;;;;;4915313;29;20052;-71
2021/08/05 00:36:04;;;;;;;4.07;2.60;;;;;;;;;;4915082;29;20087;-70
2021/08/05 00:38:31;;;;;;;3.47;2.15;;;;;;;;;;4922883;29;20075;-71
2021/08/05 00:40:58;;;;;;;2.58;2.28;;;;;;;;;;4933901;29;20511;-71
2021/08/05 00:43:25;;;;;;;4.00;2.47;;;;;;;;;;4933996;29;20087;-70
2021/08/05 00:45:51;;;;;;;3.15;2.30;;;;;;;;;;4934149;29;20090;-70
2021/08/05 00:48:18;;;;;;;2.90;2.53;;;;;;;;;;4933888;29;20086;-70
2021/08/05 00:50:46;;;;;;;2.97;2.67;;;;;;;;;;4933952;29;20097;-70
2021/08/05 00:53:12;;;;;;;2.83;2.22;;;;;;;;;;4934708;29;20131;-71
2021/08/05 00:55:39;;;;;;;3.53;2.38;;;;;;;;;;4920773;29;20091;-69
2021/08/05 00:58:05;;;;;;;4.68;2.50;;;;;;;;;;4937271;29;20079;-70
2021/08/05 01:00:32;;;;;;;4.30;2.60;;;;;;;;;;4937431;29;20090;-70
2021/08/05 01:03:13;;;;;;;3.13;2.63;;;;;;;;;;4920325;29;20082;-71
2021/08/05 01:05:45;;;;;;;5.13;2.85;;;;;;;;;;4936032;29;20411;-71
2021/08/05 01:08:15;;;;;;;3.00;2.60;;;;;;;;;;4931306;29;20127;-70
2021/08/05 01:10:48;;;;;;;2.95;2.65;;;;;;;;;;4901443;29;20080;-70
2021/08/05 01:13:19;;;;;;;2.53;2.33;;;;;;;;;;4917011;29;20519;-70
2021/08/05 01:15:46;;;;;;;3.60;2.65;;;;;;;;;;4901568;29;20130;-70
2021/08/05 01:18:31;;;;;;;3.08;2.50;;;;;;;;;;4901691;29;20479;-70
2021/08/05 01:21:01;;;;;;;3.63;2.60;;;;;;;;;;4916833;29;20134;-71
2021/08/05 01:23:33;;;;;;;3.33;2.80;;;;;;;;;;4916594;29;20087;-69
2021/08/05 01:26:17;;;;;;;2.53;2.33;;;;;;;;;;4901619;29;20092;-71
2021/08/05 01:28:44;;;;;;;3.03;2.42;;;;;;;;;;4917874;29;20094;-70
2021/08/05 01:31:11;;;;;;;4.22;2.60;;;;;;;;;;4900896;29;20511;-70
2021/08/05 01:33:38;;;;;;;2.97;2.72;;;;;;;;;;4916621;29;20084;-70
2021/08/05 01:36:05;;;;;;;4.07;2.97;;;;;;;;;;4900904;29;20492;-70
2021/08/05 01:38:33;;;;;;;3.97;2.90;;;;;;;;;;4921399;29;20130;-70
2021/08/05 01:41:02;;;;;;;3.47;2.70;;;;;;;;;;4935369;29;20479;-71
2021/08/05 01:43:28;;;;;;;3.88;2.90;;;;;;;;;;4935519;29;20087;-70
2021/08/05 01:45:55;;;;;;;3.13;2.72;;;;;;;;;;4935553;29;20142;-70
2021/08/05 01:48:21;;;;;;;4.15;2.70;;;;;;;;;;4935168;29;20051;-71
2021/08/05 01:50:48;;;;;;;4.93;2.78;;;;;;;;;;4913195;29;20131;-71
2021/08/05 01:53:15;;;;;;;5.97;3.08;;;;;;;;;;4916310;29;20594;-70
2021/08/05 01:55:42;;;;;;;3.47;2.78;;;;;;;;;;4916568;29;20084;-70
2021/08/05 01:58:09;;;;;;;2.55;2.35;;;;;;;;;;4917572;29;20087;-71
2021/08/05 02:00:36;;;;;;;3.33;2.75;;;;;;;;;;4931794;29;20086;-71
2021/08/05 02:03:04;;;;;;;2.97;2.50;;;;;;;;;;4916985;29;20507;-70
2021/08/05 02:06:08;;;;;;;3.60;3.15;;;;;;;;;;4916289;29;20059;-69
2021/08/05 02:08:42;;;;;;;4.03;2.30;;;;;;;;;;4917046;29;20095;-70
2021/08/05 02:11:09;;;;;;;3.22;2.65;;;;;;;;;;4917099;29;20083;-69
2021/08/05 02:13:40;;;;;;;3.67;2.85;;;;;;;;;;4916843;29;20098;-70
2021/08/05 02:16:11;;;;;;;3.22;2.85;;;;;;;;;;4900630;29;20139;-69
2021/08/05 02:18:39;;;;;;;3.40;2.88;;;;;;;;;;4919375;29;20087;-71
2021/08/05 02:21:05;;;;;;;3.40;2.80;;;;;;;;;;4935846;29;20087;-70
2021/08/05 02:23:32;;;;;;;2.78;2.28;;;;;;;;;;4918908;29;20507;-70
2021/08/05 02:25:58;;;;;;;2.97;2.67;;;;;;;;;;4919009;29;20098;-70
2021/08/05 02:28:25;;;;;;;3.78;2.70;;;;;;;;;;4933159;29;20131;-68
2021/08/05 02:30:52;;;;;;;3.05;2.75;;;;;;;;;;4899927;29;20091;-70
2021/08/05 02:33:20;;;;;;;3.38;2.90;;;;;;;;;;4916444;29;20052;-70
2021/08/05 02:35:47;;;;;;;4.07;3.03;;;;;;;;;;4899989;29;20511;-70
2021/08/05 02:38:14;;;;;;;5.53;3.10;;;;;;;;;;4915311;29;20087;-69
2021/08/05 02:40:42;;;;;;;3.28;2.88;;;;;;;;;;4915216;29;20099;-70
2021/08/05 02:43:10;;;;;;;2.85;2.45;;;;;;;;;;4915311;29;20484;-70
2021/08/05 02:45:37;;;;;;;3.65;2.85;;;;;;;;;;4915251;29;20088;-69
2021/08/05 02:48:06;;;;;;;4.60;2.50;;;;;;;;;;4915226;29;20080;-69
2021/08/05 02:50:33;;;;;;;3.97;3.08;;;;;;;;;;4916478;29;20083;-69
2021/08/05 02:53:01;;;;;;;3.80;3.08;;;;;;;;;;4916807;29;20476;-69
2021/08/05 02:55:27;;;;;;;3.97;3.20;;;;;;;;;;4934213;29;20172;-70
2021/08/05 02:57:54;;;;;;;4.25;3.20;;;;;;;;;;4918320;29;20540;-69
2021/08/05 03:00:21;;;;;;;4.82;3.53;;;;;;;;;;4919123;29;20127;-70
2021/08/05 03:02:48;;;;;;;4.15;3.70;;;;;;;;;;4915902;29;20098;-70
2021/08/05 03:05:16;;;;;;;4.63;4.05;;;;;;;;;;4916142;29;20583;-69
2021/08/05 03:07:43;;;;;;;4.63;3.70;;;;;;;;;;4916044;29;20508;-70
2021/08/05 03:10:14;;;;;;;5.38;3.72;;;;;;;;;;4916651;29;20056;-72
2021/08/05 03:12:40;;;;;;;6.43;3.63;;;;;;;;;;4915899;29;20095;-69
2021/08/05 03:15:08;;;;;;;6.82;4.43;;;;;;;;;;4915950;29;20095;-70
2021/08/05 03:17:34;;;;;;;5.10;4.00;;;;;;;;;;4915655;29;20060;-69
2021/08/05 03:20:01;;;;;;;4.75;3.75;;;;;;;;;;4916292;29;20135;-69
2021/08/05 03:22:28;;;;;;;6.35;4.25;;;;;;;;;;4915852;29;20087;-69
2021/08/05 03:24:54;;;;;;;5.15;3.90;;;;;;;;;;4915874;29;20211;-70
2021/08/05 03:27:21;;;;;;;6.38;4.00;;;;;;;;;;4915874;29;20091;-70
2021/08/05 03:29:47;;;;;;;4.95;4.10;;;;;;;;;;4926408;29;20052;-69
2021/08/05 03:32:14;;;;;;;4.10;3.40;;;;;;;;;;4934826;29;20055;-68
2021/08/05 03:34:40;;;;;;;4.28;3.85;;;;;;;;;;4934873;29;20052;-70
2021/08/05 03:37:07;;;;;;;5.25;3.70;;;;;;;;;;4934741;29;20138;-69
2021/08/05 03:39:34;;;;;;;4.32;3.60;;;;;;;;;;4934655;29;20483;-70
2021/08/05 03:42:01;;;;;;;6.00;3.65;;;;;;;;;;4934651;29;20098;-70
2021/08/05 03:44:28;;;;;;;4.82;3.53;;;;;;;;;;4934415;29;20138;-70
2021/08/05 03:46:54;;;;;;;5.28;4.32;;;;;;;;;;4934650;29;20079;-70
2021/08/05 03:49:21;;;;;;;5.82;3.88;;;;;;;;;;4934691;29;20075;-69
2021/08/05 03:51:48;;;;;;;5.75;3.47;;;;;;;;;;4934521;29;20083;-70
2021/08/05 03:54:14;;;;;;;6.03;3.58;;;;;;;;;;4934514;29;20443;-70
2021/08/05 03:56:40;;;;;;;9.57;3.70;;;;;;;;;;4934567;29;20098;-70
2021/08/05 03:59:07;;;;;;;5.85;3.67;;;;;;;;;;4934329;29;20215;-70
2021/08/05 04:01:34;;;;;;;4.38;3.70;;;;;;;;;;4933829;29;20135;-70
2021/08/05 04:04:01;;;;;;;5.25;3.35;;;;;;;;;;4922273;29;20139;-70
2021/08/05 04:06:27;;;;;;;5.43;3.83;;;;;;;;;;4915169;29;20059;-70
2021/08/05 04:08:54;;;;;;;7.45;3.50;;;;;;;;;;4915380;29;20044;-70
2021/08/05 04:11:20;;;;;;;8.88;4.32;;;;;;;;;;4905301;29;20087;-70
2021/08/05 04:13:48;;;;;;;5.85;3.92;;;;;;;;;;4903907;29;20048;-70
2021/08/05 04:16:15;;;;;;;4.30;3.90;;;;;;;;;;4905982;29;20084;-70
2021/08/05 04:18:41;;;;;;;5.03;4.10;;;;;;;;;;4914021;29;20515;-70
2021/08/05 04:21:08;;;;;;;5.93;4.10;;;;;;;;;;4914996;29;20093;-71
2021/08/05 04:23:35;;;;;;;4.90;3.97;;;;;;;;;;4915285;29;20086;-70
2021/08/05 04:26:02;;;;;;;7.10;4.13;;;;;;;;;;4915379;29;20055;-70
2021/08/05 04:28:28;;;;;;;7.47;4.03;;;;;;;;;;4916762;29;20091;-68
2021/08/05 04:30:55;;;;;;;7.30;4.43;;;;;;;;;;4918941;29;20131;-70
2021/08/05 04:33:21;;;;;;;6.35;4.20;;;;;;;;;;4918674;29;20579;-70
2021/08/05 04:35:48;;;;;;;4.35;3.72;;;;;;;;;;4916155;29;20087;-70
2021/08/05 04:38:15;;;;;;;6.20;3.72;;;;;;;;;;4902265;29;20086;-69
2021/08/05 04:40:42;;;;;;;8.15;3.72;;;;;;;;;;4908914;29;20059;-70
2021/08/05 04:43:08;;;;;;;5.53;4.05;;;;;;;;;;4918564;29;20107;-68
2021/08/05 04:45:35;;;;;;;4.85;3.60;;;;;;;;;;4918836;29;20098;-70
2021/08/05 04:48:07;;;;;;;5.07;3.53;;;;;;;;;;4918490;29;20091;-70
2021/08/05 04:50:35;;;;;;;3.58;3.28;;;;;;;;;;4918732;29;20508;-70
2021/08/05 04:53:03;;;;;;;4.93;4.43;;;;;;;;;;4918254;29;20147;-69
2021/08/05 04:55:29;;;;;;;7.03;3.70;;;;;;;;;;4918723;29;20087;-70
2021/08/05 04:58:00;;;;;;;4.35;3.78;;;;;;;;;;4918599;29;20090;-70
2021/08/05 05:00:27;;;;;;;5.32;4.18;;;;;;;;;;4918458;29;20076;-70
2021/08/05 05:02:54;;;;;;;4.85;3.85;;;;;;;;;;4918366;29;20056;-70
2021/08/05 05:05:22;;;;;;;4.28;3.78;;;;;;;;;;4918415;29;20091;-69
2021/08/05 05:07:49;;;;;;;4.82;3.83;;;;;;;;;;4918601;29;20084;-71
2021/08/05 05:10:16;;;;;;;7.07;4.07;;;;;;;;;;4921488;29;20087;-69
2021/08/05 05:12:43;;;;;;;5.30;4.25;;;;;;;;;;4937074;29;20102;-70
2021/08/05 05:15:11;;;;;;;6.10;3.92;;;;;;;;;;4937114;29;20106;-69
2021/08/05 05:17:38;;;;;;;8.20;4.22;;;;;;;;;;4937284;29;20162;-69
2021/08/05 05:20:06;;;;;;;6.25;3.95;;;;;;;;;;4934878;29;20460;-70
2021/08/05 05:22:37;;;;;;;5.57;3.53;;;;;;;;;;4924533;29;20553;-70
2021/08/05 05:25:05;;;;;;;8.05;4.00;;;;;;;;;;4937012;29;20079;-70
2021/08/05 05:27:32;;;;;;;7.65;3.65;;;;;;;;;;4935235;29;20083;-70
2021/08/05 05:30:00;;;;;;;5.88;4.20;;;;;;;;;;4934093;29;20083;-70
2021/08/05 05:32:28;;;;;;;5.22;3.65;;;;;;;;;;4916144;29;20513;-69
2021/08/05 05:34:55;;;;;;;12.15;4.00;;;;;;;;;;4915979;29;20095;-69
2021/08/05 05:37:22;;;;;;;5.50;4.32;;;;;;;;;;4915677;29;20526;-70
2021/08/05 05:39:51;;;;;;;6.55;3.65;;;;;;;;;;4914952;29;20087;-69
2021/08/05 05:42:18;;;;;;;7.63;4.50;;;;;;;;;;4934267;29;20094;-69
2021/08/05 05:44:45;;;;;;;7.82;4.10;;;;;;;;;;4934665;29;20482;-70
2021/08/05 05:47:11;;;;;;;7.28;4.13;;;;;;;;;;4934344;29;20151;-69
2021/08/05 05:49:38;;;;;;;7.60;4.55;;;;;;;;;;4934540;29;20079;-69
2021/08/05 05:52:05;;;;;;;5.68;4.15;;;;;;;;;;4933810;29;20519;-69
2021/08/05 05:54:31;;;;;;;6.03;4.28;;;;;;;;;;4933872;29;20523;-70
2021/08/05 05:56:58;;;;;;;7.65;4.63;;;;;;;;;;4934216;29;20078;-69
2021/08/05 05:59:25;;;;;;;5.57;4.47;;;;;;;;;;4934322;29;20079;-70
2021/08/05 06:01:51;;;;;;;5.72;3.92;;;;;;;;;;4934141;29;20087;-70
2021/08/05 06:04:18;;;;;;;6.63;4.38;;;;;;;;;;4933875;29;20118;-68
2021/08/05 06:06:45;;;;;;;4.97;3.83;;;;;;;;;;4933745;29;20474;-69
2021/08/05 06:09:11;;;;;;;5.10;4.10;;;;;;;;;;4934088;29;20048;-70
2021/08/05 06:11:38;;;;;;;5.57;4.07;;;;;;;;;;4921010;29;20147;-69
2021/08/05 06:14:04;;;;;;;8.45;4.75;;;;;;;;;;4914864;29;20727;-70
2021/08/05 06:16:31;;;;;;;7.68;4.22;;;;;;;;;;4915031;29;20066;-69
2021/08/05 06:18:58;;;;;;;4.82;4.20;;;;;;;;;;4914232;29;20063;-68
2021/08/05 06:21:24;;;;;;;4.47;3.80;;;;;;;;;;4914791;29;20570;-68
2021/08/05 06:23:51;;;;;;;6.32;4.18;;;;;;;;;;4914828;29;20491;-68
2021/08/05 06:26:21;;;;;;;5.18;4.25;;;;;;;;;;4900233;29;20509;-66
2021/08/05 06:28:48;;;;;;;4.88;4.22;;;;;;;;;;4908054;29;20517;-67
2021/08/05 06:31:16;;;;;;;6.88;4.68;;;;;;;;;;4906783;29;20095;-67
2021/08/05 06:33:43;;;;;;;5.22;3.53;;;;;;;;;;4902873;29;20052;-67
2021/08/05 06:36:09;;;;;;;4.78;4.00;;;;;;;;;;4901736;29;20087;-67
2021/08/05 06:38:36;;;;;;;6.68;4.20;;;;;;;;;;4901759;29;20083;-67
2021/08/05 06:41:02;;;;;;;5.78;4.43;;;;;;;;;;4900832;29;20083;-67
2021/08/05 06:43:29;;;;;;;5.82;4.47;;;;;;;;;;4902559;29;20100;-67
2021/08/05 06:45:56;;;;;;;8.93;4.78;;;;;;;;;;4903960;29;20131;-66
2021/08/05 06:48:22;;;;;;;7.38;4.45;;;;;;;;;;4900373;29;20082;-68
2021/08/05 06:50:53;;;;;;;5.40;3.88;;;;;;;;;;4903720;29;20527;-69
2021/08/05 06:53:20;;;;;;;8.73;4.38;;;;;;;;;;4901889;29;20083;-67
2021/08/05 06:55:47;;;;;;;6.43;4.28;;;;;;;;;;4900982;29;20052;-66
2021/08/05 06:58:14;;;;;;;9.45;4.90;;;;;;;;;;4902211;29;20094;-66
2021/08/05 07:00:41;;;;;;;8.05;3.90;;;;;;;;;;4900565;29;20059;-69
2021/08/05 07:03:08;;;;;;;8.68;3.92;;;;;;;;;;4904254;29;20539;-68
2021/08/05 07:05:35;;;;;;;6.53;3.95;;;;;;;;;;4901002;29;20445;-68
2021/08/05 07:08:02;;;;;;;4.45;3.53;;;;;;;;;;4900335;29;20091;-68
2021/08/05 07:10:28;;;;;;;4.40;3.03;;;;;;;;;;4900950;29;20099;-68
2021/08/05 07:12:55;;;;;;;4.68;3.65;;;;;;;;;;4900533;29;20088;-67
2021/08/05 07:15:21;;;;;;;5.15;2.95;;;;;;;;;;4901867;29;20108;-69
2021/08/05 07:17:48;;;;;;;5.80;3.20;;;;;;;;;;4900087;29;20044;-69
2021/08/05 07:20:16;;;;;;;6.93;3.03;;;;;;;;;;4902139;29;20049;-70
2021/08/05 07:22:43;;;;;;;6.40;2.75;;;;;;;;;;4902497;29;20080;-68
2021/08/05 07:25:12;;;;;;;6.45;2.80;;;;;;;;;;4899989;29;20767;-69
2021/08/05 07:27:40;;;;;;;5.43;3.78;;;;;;;;;;4899827;29;20044;-70
2021/08/05 07:30:09;;;;;;;7.20;3.65;;;;;;;;;;4903586;29;20052;-74
2021/08/05 07:32:36;;;;;;;4.03;3.33;;;;;;;;;;4898946;29;20059;-74
2021/08/05 07:35:03;;;;;;;4.95;3.22;;;;;;;;;;4903706;29;20095;-74
2021/08/05 07:37:30;;;;;;;5.10;2.92;;;;;;;;;;4902382;29;20397;-72
2021/08/05 07:39:57;;;;;;;4.13;2.90;;;;;;;;;;4903490;29;20134;-71
2021/08/05 07:42:24;;;;;;;4.47;2.72;;;;;;;;;;4902998;29;20090;-72
2021/08/05 07:44:50;;;;;;;4.28;2.97;;;;;;;;;;4899297;29;20540;-69
2021/08/05 07:47:17;;;;;;;3.10;2.47;;;;;;;;;;4900956;29;20204;-69
2021/08/05 07:49:43;;;;;;;4.28;2.78;;;;;;;;;;4899859;29;20044;-71
2021/08/05 07:52:10;;;;;;;5.45;3.22;;;;;;;;;;4900506;29;20088;-72
2021/08/05 07:54:37;;;;;;;4.05;2.88;;;;;;;;;;4903705;29;20084;-71
2021/08/05 07:57:04;;;;;;;4.95;2.92;;;;;;;;;;4900489;29;20566;-70
2021/08/05 07:59:30;;;;;;;3.00;2.72;;;;;;;;;;4900973;29;20087;-68
2021/08/05 08:01:57;;;;;;;4.38;2.72;;;;;;;;;;4904960;29;20479;-70
2021/08/05 08:04:24;;;;;;;4.72;2.22;;;;;;;;;;4905182;29;20091;-69
2021/08/05 08:06:50;;;;;;;5.60;2.92;;;;;;;;;;4906965;29;20515;-69
2021/08/05 08:09:17;;;;;;;5.13;2.60;;;;;;;;;;4908009;29;20160;-69
2021/08/05 08:11:43;;;;;;;3.45;2.55;;;;;;;;;;4910276;29;20052;-71
2021/08/05 08:14:11;;;;;;;4.28;3.00;;;;;;;;;;4906017;29;20099;-72
2021/08/05 08:16:40;;;;;;;3.15;2.58;;;;;;;;;;4908448;29;20059;-72
2021/08/05 08:19:07;;;;;;;3.42;2.67;;;;;;;;;;4906438;29;20546;-65
2021/08/05 08:21:34;;;;;;;4.03;2.55;;;;;;;;;;4906930;29;20076;-66
2021/08/05 08:24:01;;;;;;;3.40;2.15;;;;;;;;;;4905416;29;20056;-66
2021/08/05 08:26:27;;;;;;;4.85;3.00;;;;;;;;;;4905455;29;20098;-65
2021/08/05 08:28:54;;;;;;;4.45;3.05;;;;;;;;;;4906450;29;20155;-66
2021/08/05 08:31:20;;;;;;;4.18;2.50;;;;;;;;;;4904533;29;20087;-66
2021/08/05 08:33:47;;;;;;;4.03;2.30;;;;;;;;;;4906645;29;20052;-66
2021/08/05 08:36:14;;;;;;;6.82;2.60;;;;;;;;;;4904064;29;20091;-66
2021/08/05 08:38:43;;;;;;;4.72;2.80;;;;;;;;;;4908752;29;20140;-66
2021/08/05 08:41:12;;;;;;;5.18;3.10;;;;;;;;;;4904560;29;20389;-66
2021/08/05 08:43:39;;;;;;;3.45;2.33;;;;;;;;;;4906052;29;20128;-65
2021/08/05 08:46:06;;;;;;;3.72;2.67;;;;;;;;;;4904306;29;20092;-66
2021/08/05 08:48:33;;;;;;;3.60;2.50;;;;;;;;;;4907637;29;20044;-66
2021/08/05 08:51:00;;;;;;;3.95;2.40;;;;;;;;;;4903395;29;20052;-68
2021/08/05 08:53:31;;;;;;;4.13;2.53;;;;;;;;;;4906782;29;20056;-68
2021/08/05 08:55:58;;;;;;;5.55;2.80;;;;;;;;;;4905453;29;20079;-69
2021/08/05 08:58:25;;;;;;;3.60;2.53;;;;;;;;;;4888866;29;20152;-71
2021/08/05 09:00:51;;;;;;;4.03;2.55;;;;;;;;;;4903473;29;20049;-70
2021/08/05 09:03:18;;;;;;;3.33;2.58;;;;;;;;;;4903337;29;20505;-71
2021/08/05 09:05:45;;;;;;;3.60;2.55;;;;;;;;;;4903592;29;20526;-71
2021/08/05 09:08:11;;;;;;;2.90;2.22;;;;;;;;;;4903793;29;20088;-68
2021/08/05 09:10:38;;;;;;;3.58;2.45;;;;;;;;;;4940187;23;20063;-69
2021/08/05 09:13:07;;;;;;;3.50;2.28;;;;;;;;;;4933828;29;20569;-69
2021/08/05 09:15:45;;;;;;;4.93;3.03;;;;;;;;;;4919292;29;20126;-67
2021/08/05 09:18:34;;;;;;;4.18;2.65;;;;;;;;;;4935878;29;20048;-68
2021/08/05 09:21:09;;;;;;;6.57;3.00;;;;;;;;;;4934096;29;20047;-72
2021/08/05 09:24:01;;;;;;;4.25;2.20;;;;;;;;;;4931717;29;20086;-69
2021/08/05 09:26:46;;;;;;;2.53;2.10;;;;;;;;;;4934528;29;20459;-67
2021/08/05 09:29:23;;;;;;;2.30;2.10;;;;;;;;;;4910593;29;20052;-66
2021/08/05 09:31:54;;;;;;;3.20;1.83;;;;;;;;;;4927716;29;20055;-67
2021/08/05 09:34:22;;;;;;;4.15;2.15;;;;;;;;;;4935505;29;20055;-66
2021/08/05 09:36:52;;;;;;;2.95;2.10;;;;;;;;;;4934530;29;20502;-68
2021/08/05 09:39:23;;;;;;;2.70;1.90;;;;;;;;;;4933797;29;20086;-69
2021/08/05 09:41:54;;;;;;;3.40;1.98;;;;;;;;;;4934506;29;20134;-69
2021/08/05 09:44:21;;;;;;;2.25;1.90;;;;;;;;;;4934366;29;20080;-70
2021/08/05 09:47:13;;;;;;;2.33;2.10;;;;;;;;;;4932024;29;20058;-69
2021/08/05 09:49:50;;;;;;;4.13;1.90;;;;;;;;;;4935477;29;20111;-73
2021/08/05 09:52:31;;;;;;;5.18;2.05;;;;;;;;;;4917219;29;20079;-71
2021/08/05 09:55:08;;;;;;;2.83;1.83;;;;;;;;;;4933547;29;20582;-72
2021/08/05 09:57:39;;;;;;;4.00;2.10;;;;;;;;;;4898962;29;20080;-69
2021/08/05 10:00:10;;;;;;;2.10;1.60;;;;;;;;;;4928137;29;20051;-70
2021/08/05 10:02:46;;;;;;;3.55;1.90;;;;;;;;;;4933622;29;20332;-69
2021/08/05 10:05:15;;;;;;;3.70;1.83;;;;;;;;;;4930338;29;20079;-68
2021/08/05 10:07:42;;;;;;;1.70;1.60;;;;;;;;;;4917413;29;20052;-69
2021/08/05 10:10:10;;;;;;;2.38;2.17;;;;;;;;;;4934149;29;20118;-69
2021/08/05 10:12:38;;;;;;;6.30;2.05;;;;;;;;;;4936239;29;20466;-70
2021/08/05 10:15:05;;;;;;;1.92;1.75;;;;;;;;;;4901949;29;20052;-70
2021/08/05 10:17:32;;;;;;;1.52;1.42;;;;;;;;;;4931982;29;20053;-66
2021/08/05 10:19:59;;;;;;;2.33;1.52;;;;;;;;;;4932674;29;20055;-66
2021/08/05 10:22:26;;;;;;;2.67;1.67;;;;;;;;;;4933084;29;20051;-66
2021/08/05 10:24:52;;;;;;;2.88;1.50;;;;;;;;;;4932480;29;20519;-66
2021/08/05 10:27:20;;;;;;;1.95;1.50;;;;;;;;;;4933640;29;20091;-68
2021/08/05 10:29:48;;;;;;;1.98;1.67;;;;;;;;;;4932769;29;20104;-65
2021/08/05 10:32:15;;;;;;;3.25;1.80;;;;;;;;;;4932716;29;20075;-66
2021/08/05 10:34:42;;;;;;;1.83;1.50;;;;;;;;;;4949238;29;20142;-67
2021/08/05 10:37:12;;;;;;;2.25;1.70;;;;;;;;;;4933507;29;20052;-64
2021/08/05 10:39:42;;;;;;;3.75;1.63;;;;;;;;;;4933143;29;20051;-67
2021/08/05 10:42:11;;;;;;;2.75;1.50;;;;;;;;;;4933418;29;20134;-72
2021/08/05 10:44:39;;;;;;;1.70;1.60;;;;;;;;;;4932458;29;20051;-68
2021/08/05 10:47:07;;;;;;;3.17;1.90;;;;;;;;;;4916898;29;20459;-67
2021/08/05 10:49:34;;;;;;;2.42;2.08;;;;;;;;;;4933472;29;20052;-68
2021/08/05 10:52:01;;;;;;;2.05;1.73;;;;;;;;;;4932096;29;20495;-67
2021/08/05 10:54:49;;;;;;;2.70;2.13;;;;;;;;;;4932665;29;20486;-68
2021/08/05 10:57:21;;;;;;;2.58;1.83;;;;;;;;;;4932589;29;20082;-68
2021/08/05 11:00:02;;;;;;;3.45;1.67;;;;;;;;;;4932605;29;20107;-68
2021/08/05 11:02:49;;;;;;;2.70;1.95;;;;;;;;;;4930177;29;20052;-69
2021/08/05 11:05:24;;;;;;;2.28;1.42;;;;;;;;;;4931079;29;20051;-66
2021/08/05 11:07:55;;;;;;;2.05;1.50;;;;;;;;;;4931879;29;20101;-69
2021/08/05 11:10:26;;;;;;;1.63;1.48;;;;;;;;;;4916049;29;20099;-71
2021/08/05 11:12:54;;;;;;;1.30;1.20;;;;;;;;;;4914535;29;20110;-71
2021/08/05 11:15:29;;;;;;;1.92;1.15;;;;;;;;;;4933146;29;20052;-71
2021/08/05 11:18:02;;;;;;;1.65;1.40;;;;;;;;;;4933305;29;20529;-68
2021/08/05 11:20:29;;;;;;;2.65;1.35;;;;;;;;;;4930191;29;20078;-69
2021/08/05 11:22:56;;;;;;;1.35;1.25;;;;;;;;;;4932523;29;20051;-68
2021/08/05 11:25:23;;;;;;;1.67;1.33;;;;;;;;;;4933772;29;20396;-69
2021/08/05 11:28:24;;;;;;;0.98;0.85;;;;;;;;;;4932013;29;20059;-69
2021/08/05 11:30:58;;;;;;;1.67;1.33;;;;;;;;;;4932018;29;20079;-69
2021/08/05 11:33:40;;;;;;;1.88;1.70;;;;;;;;;;4932563;29;20047;-71
2021/08/05 11:36:23;;;;;;;1.52;1.15;;;;;;;;;;4931703;29;20562;-70
2021/08/05 11:38:59;;;;;;;;;;;;;;;;;;4934044;29;20121;-67
2021/08/05 11:42:03;;;;;;;2.45;1.33;;;;;;;;;;4928981;29;19923;-66
2021/08/05 11:44:34;;;;;;;2.10;1.00;;;;;;;;;;4932959;29;20115;-70
2021/08/05 11:47:04;;;;;;;1.55;1.45;;;;;;;;;;4910992;29;20400;-69
2021/08/05 11:49:51;;;;;;;1.45;1.13;;;;;;;;;;4933068;29;20498;-70
2021/08/05 11:52:22;;;;;;;1.63;1.27;;;;;;;;;;4913903;29;20047;-70
2021/08/05 11:55:04;;;;;;;2.53;1.23;;;;;;;;;;4932737;29;20574;-69
2021/08/05 11:57:58;;;;;;;1.47;1.20;;;;;;;;;;4930233;29;20091;-69
2021/08/05 12:00:28;;;;;;;3.05;1.77;;;;;;;;;;4928477;29;20311;-69
2021/08/05 12:03:02;;;;;;;1.10;1.00;;;;;;;;;;4931821;29;20047;-69
2021/08/05 12:05:36;;;;;;;3.17;1.27;;;;;;;;;;4931781;29;20051;-69
2021/08/05 12:08:03;;;;;;;1.50;1.40;;;;;;;;;;4915916;29;20106;-65
2021/08/05 12:10:31;;;;;;;1.40;1.30;;;;;;;;;;4932918;29;20092;-65
2021/08/05 12:13:08;;;;;;;1.20;1.10;;;;;;;;;;4931606;29;20060;-65
2021/08/05 12:15:40;;;;;;;1.30;1.20;;;;;;;;;;4930785;29;20511;-65
2021/08/05 12:18:11;;;;;;;1.27;1.00;;;;;;;;;;4933080;29;20048;-65
2021/08/05 12:20:40;;;;;;;1.13;1.00;;;;;;;;;;4928226;29;20048;-65
2021/08/05 12:23:17;;;;;;;1.40;1.30;;;;;;;;;;4932103;29;20519;-65
2021/08/05 12:25:50;;;;;;;2.25;1.10;;;;;;;;;;4932841;29;20091;-65
2021/08/05 12:28:19;;;;;;;1.65;1.55;;;;;;;;;;4917301;29;20090;-66
2021/08/05 12:30:54;;;;;;;2.67;1.27;;;;;;;;;;4931551;29;20135;-65
2021/08/05 12:33:28;;;;;;;1.63;1.00;;;;;;;;;;4932638;29;20063;-65
2021/08/05 12:36:17;;;;;;;1.00;0.90;;;;;;;;;;4931909;29;20111;-65
2021/08/05 12:39:07;;;;;;;2.10;1.25;;;;;;;;;;4931389;29;20130;-66
2021/08/05 12:41:50;;;;;;;1.42;1.13;;;;;;;;;;4931642;29;20083;-65
2021/08/05 12:44:20;;;;;;;1.17;1.08;;;;;;;;;;4932425;29;20086;-65
2021/08/05 12:46:50;;;;;;;1.30;1.00;;;;;;;;;;4931822;29;20100;-65
2021/08/05 12:49:17;;;;;;;1.58;0.77;;;;;;;;;;4933685;29;20550;-65
2021/08/05 12:51:44;;;;;;;2.83;1.00;;;;;;;;;;4935038;29;20083;-65
2021/08/05 12:54:21;;;;;;;1.70;0.98;;;;;;;;;;4917660;29;20051;-65
2021/08/05 12:57:09;;;;;;;2.25;0.80;;;;;;;;;;4936263;29;20052;-65
2021/08/05 12:59:47;;;;;;;0.82;0.82;;;;;;;;;;4935494;29;20079;-65
2021/08/05 13:02:15;;;;;;;1.25;1.05;;;;;;;;;;4931883;29;20083;-65
2021/08/05 13:04:43;;;;;;;1.42;0.90;;;;;;;;;;4934393;29;20091;-66
2021/08/05 13:07:13;;;;;;;1.10;1.00;;;;;;;;;;4934281;29;20110;-66
2021/08/05 13:10:09;;;;;;;1.20;1.02;;;;;;;;;;4934161;29;20056;-65
2021/08/05 13:12:36;;;;;;;1.10;1.00;;;;;;;;;;4931330;29;20075;-65
2021/08/05 13:15:31;;;;;;;2.33;1.00;;;;;;;;;;4918833;29;20408;-66
2021/08/05 13:18:00;;;;;;;1.35;1.10;;;;;;;;;;4935007;29;20052;-65
2021/08/05 13:20:29;;;;;;;1.60;1.25;;;;;;;;;;4934992;29;20048;-65
2021/08/05 13:22:57;;;;;;;1.42;1.10;;;;;;;;;;4934831;29;20044;-65
2021/08/05 13:25:41;;;;;;;2.58;1.20;;;;;;;;;;4931506;29;20076;-65
2021/08/05 13:28:12;;;;;;;1.23;1.13;;;;;;;;;;4919114;29;20060;-65
2021/08/05 13:30:44;;;;;;;1.30;1.10;;;;;;;;;;4933662;29;20051;-67
2021/08/05 13:33:25;;;;;;;1.83;1.20;;;;;;;;;;4932437;29;20084;-66
2021/08/05 13:35:54;;;;;;;2.33;1.20;;;;;;;;;;4934644;29;20066;-66
2021/08/05 13:38:21;;;;;;;2.05;1.15;;;;;;;;;;4928477;29;20087;-70
2021/08/05 13:40:47;;;;;;;1.30;1.10;;;;;;;;;;4917927;29;20289;-72
2021/08/05 13:43:15;;;;;;;1.80;1.10;;;;;;;;;;4933839;29;20048;-67
2021/08/05 13:45:43;;;;;;;2.28;1.00;;;;;;;;;;4932068;29;20118;-71
2021/08/05 13:48:10;;;;;;;1.20;1.10;;;;;;;;;;4934048;29;20075;-70
2021/08/05 13:50:37;;;;;;;1.17;1.08;;;;;;;;;;4933808;29;20086;-71
2021/08/05 13:53:05;;;;;;;1.00;0.90;;;;;;;;;;4919863;29;20047;-68
2021/08/05 13:55:34;;;;;;;1.77;0.85;;;;;;;;;;4918439;29;20091;-71
2021/08/05 13:58:01;;;;;;;1.30;1.00;;;;;;;;;;4916721;29;20055;-70
2021/08/05 14:00:28;;;;;;;3.10;1.20;;;;;;;;;;4933276;29;20087;-69
2021/08/05 14:02:56;;;;;;;1.80;1.02;;;;;;;;;;4935123;29;20105;-69
2021/08/05 14:05:23;;;;;;;0.80;0.80;;;;;;;;;;4918263;29;20063;-67
2021/08/05 14:07:52;;;;;;;0.82;0.75;;;;;;;;;;4934048;29;20052;-68
2021/08/05 14:10:20;;;;;;;1.35;0.85;;;;;;;;;;4932882;29;20107;-68
2021/08/05 14:12:47;;;;;;;0.80;0.80;;;;;;;;;;4914327;29;20511;-65
2021/08/05 14:15:16;;;;;;;1.10;0.95;;;;;;;;;;4933276;29;20048;-66
2021/08/05 14:17:43;;;;;;;1.67;1.10;;;;;;;;;;4934458;29;20044;-67
2021/08/05 14:20:11;;;;;;;1.33;1.17;;;;;;;;;;4925721;29;20515;-67
2021/08/05 14:22:38;;;;;;;2.83;1.10;;;;;;;;;;4919148;29;20052;-67
2021/08/05 14:25:05;;;;;;;1.58;1.00;;;;;;;;;;4932822;29;20090;-67
2021/08/05 14:27:31;;;;;;;1.95;0.90;;;;;;;;;;4933028;29;20139;-67
2021/08/05 14:29:58;;;;;;;1.73;1.10;;;;;;;;;;4935737;29;20142;-67
2021/08/05 14:32:25;;;;;;;1.10;1.00;;;;;;;;;;4935590;29;20079;-67
2021/08/05 14:34:51;;;;;;;2.60;1.30;;;;;;;;;;4934879;29;20127;-67
2021/08/05 14:37:18;;;;;;;1.50;1.20;;;;;;;;;;4918156;29;20084;-67
2021/08/05 14:39:44;;;;;;;1.30;1.08;;;;;;;;;;4935709;29;20566;-67
2021/08/05 14:42:11;;;;;;;1.83;1.10;;;;;;;;;;4935423;29;20098;-67
2021/08/05 14:44:37;;;;;;;1.30;0.80;;;;;;;;;;4934112;29;20130;-67
2021/08/05 14:47:04;;;;;;;1.17;0.88;;;;;;;;;;4931617;29;20135;-67
2021/08/05 14:49:31;;;;;;;0.98;0.90;;;;;;;;;;4915323;29;20503;-67
2021/08/05 14:51:57;;;;;;;1.27;1.00;;;;;;;;;;4916728;29;20096;-67
2021/08/05 14:54:24;;;;;;;1.23;0.90;;;;;;;;;;4924493;29;20087;-67
2021/08/05 14:56:50;;;;;;;1.23;1.02;;;;;;;;;;4934216;29;20055;-67